Terminal Aerodrome Forecast
Issued by NWS Cleveland, OH

Home | Current Version | Previous Version | Text Only | Print | Product List | Glossary Off
Versions: 1 2 3 4 5 6 7 8 9 10 11 12 13

000
FTUS41 KCLE 252324
TAFYNG
TAF
KYNG 252324Z 2600/2624 10005KT P6SM SCT250
     FM261000 17008KT P6SM OVC100
     FM261600 25012KT 5SM -SHRA OVC025
     FM262100 30014G24KT P6SM BKN070=

USA.gov is the U.S. government's official web portal to all federal, state and local government web resources and services.